createdAt,value
2023-03-16T00:00:57.404Z,1.84
2023-03-16T00:03:25.391Z,2.27
2023-03-16T00:05:54.425Z,2.31
2023-03-16T00:08:23.731Z,2.12
2023-03-16T00:10:53.543Z,1.97
2023-03-16T00:13:25.011Z,1.87
2023-03-16T00:15:56.912Z,1.94
2023-03-16T00:18:28.092Z,2.15
2023-03-16T00:21:01.602Z,2.19
2023-03-16T00:23:35.016Z,1.79
2023-03-16T00:26:08.012Z,1.45
2023-03-16T00:28:35.426Z,1.67
2023-03-16T00:31:03.730Z,1.94
2023-03-16T00:33:34.744Z,1.90
2023-03-16T00:36:02.812Z,1.82
2023-03-16T00:38:35.086Z,1.69
2023-03-16T00:41:04.098Z,1.61
2023-03-16T00:43:32.219Z,1.88
2023-03-16T00:46:06.156Z,1.85
2023-03-16T00:48:34.536Z,1.57
2023-03-16T00:51:03.941Z,1.50
2023-03-16T00:53:35.693Z,1.75
2023-03-16T00:56:03.796Z,2.05
2023-03-16T00:58:35.531Z,2.12
2023-03-16T01:01:06.782Z,1.71
2023-03-16T01:03:35.441Z,1.60
2023-03-16T01:06:16.729Z,1.56
2023-03-16T01:08:44.204Z,1.83
2023-03-16T01:11:16.456Z,1.73
2023-03-16T01:13:49.083Z,1.65
2023-03-16T01:16:18.471Z,1.71
2023-03-16T01:18:46.412Z,1.36
2023-03-16T01:21:13.556Z,1.64
2023-03-16T01:23:40.710Z,1.60
2023-03-16T01:26:08.306Z,1.25
2023-03-16T01:28:35.518Z,1.30
2023-03-16T01:31:06.149Z,1.48
2023-03-16T01:33:34.663Z,1.57
2023-03-16T01:36:08.251Z,1.53
2023-03-16T01:38:45.008Z,1.39
2023-03-16T01:41:13.286Z,1.19
2023-03-16T01:43:40.962Z,1.37
2023-03-16T01:46:17.596Z,1.61
2023-03-16T01:49:02.702Z,1.45
2023-03-16T01:51:36.900Z,1.30
2023-03-16T01:54:26.063Z,1.21
2023-03-16T01:57:05.534Z,1.55
2023-03-16T01:59:57.761Z,1.38
2023-03-16T02:02:26.660Z,1.37
2023-03-16T02:05:03.419Z,1.18
2023-03-16T02:07:37.425Z,1.40
2023-03-16T02:10:05.338Z,1.55
2023-03-16T02:12:35.839Z,1.23
2023-03-16T02:15:04.200Z,1.12
2023-03-16T02:17:32.262Z,1.26
2023-03-16T02:20:30.762Z,1.43
2023-03-16T02:22:58.305Z,1.58
2023-03-16T02:25:51.268Z,1.47
2023-03-16T02:28:47.597Z,1.15
2023-03-16T02:31:18.672Z,1.22
2023-03-16T02:33:46.090Z,1.40
2023-03-16T02:36:17.233Z,1.30
2023-03-16T02:38:44.287Z,1.13
2023-03-16T02:41:12.574Z,1.22
2023-03-16T02:43:43.755Z,1.21
2023-03-16T02:46:26.486Z,1.39
2023-03-16T02:49:10.556Z,1.01
2023-03-16T02:51:38.156Z,1.06
2023-03-16T02:54:05.279Z,0.59
2023-03-16T02:56:36.724Z,0.65
2023-03-16T02:59:03.793Z,0.83
2023-03-16T03:01:34.399Z,0.80
2023-03-16T03:04:03.343Z,0.52
2023-03-16T03:06:32.597Z,0.51
2023-03-16T03:09:01.691Z,0.60
2023-03-16T03:11:29.547Z,0.67
2023-03-16T03:13:56.906Z,0.66
2023-03-16T03:16:26.060Z,0.35
2023-03-16T03:18:54.590Z,0.45
2023-03-16T03:21:23.787Z,0.59
2023-03-16T03:23:51.554Z,0.65
2023-03-16T03:26:19.546Z,0.36
2023-03-16T03:28:49.015Z,0.27
2023-03-16T03:31:19.787Z,0.42
2023-03-16T03:33:47.520Z,0.77
2023-03-16T03:36:14.871Z,0.72
2023-03-16T03:38:43.864Z,0.67
2023-03-16T03:41:12.993Z,0.31
2023-03-16T03:43:41.849Z,0.40
2023-03-16T03:46:18.525Z,0.72
2023-03-16T03:48:46.106Z,0.67
2023-03-16T03:51:13.432Z,0.58
2023-03-16T03:53:46.115Z,0.36
2023-03-16T03:56:31.815Z,0.26
2023-03-16T03:58:58.874Z,0.57
2023-03-16T04:01:41.287Z,0.60
2023-03-16T04:04:08.715Z,0.41
2023-03-16T04:06:36.064Z,0.26
2023-03-16T04:09:03.535Z,0.29
2023-03-16T04:11:38.444Z,0.66
2023-03-16T04:14:06.314Z,0.75
2023-03-16T04:16:33.782Z,0.53
2023-03-16T04:19:04.311Z,0.34
2023-03-16T04:21:32.167Z,0.27
2023-03-16T04:24:03.378Z,0.67
2023-03-16T04:26:33.941Z,0.61
2023-03-16T04:29:03.134Z,0.66
2023-03-16T04:31:35.756Z,0.20
2023-03-16T04:34:03.580Z,0.04
2023-03-16T04:36:32.458Z,0.57
2023-03-16T04:39:01.709Z,0.43
2023-03-16T04:41:29.335Z,0.31
2023-03-16T04:44:05.898Z,0.12
2023-03-16T04:46:35.567Z,0.22
2023-03-16T04:49:04.509Z,0.39
2023-03-16T04:51:32.379Z,0.61
2023-03-16T04:54:04.857Z,0.36
2023-03-16T04:56:36.835Z,0.11
2023-03-16T04:59:07.741Z,0.35
2023-03-16T05:02:03.597Z,0.46
2023-03-16T05:04:31.230Z,0.54
2023-03-16T05:07:00.525Z,0.42
2023-03-16T05:09:31.902Z,0.33
2023-03-16T05:11:59.019Z,0.33
2023-03-16T05:14:35.802Z,0.24
2023-03-16T05:17:23.748Z,0.19
2023-03-16T05:19:51.360Z,0.13
2023-03-16T05:22:23.457Z,0.24
2023-03-16T05:25:14.468Z,0.51
2023-03-16T05:27:46.942Z,0.52
2023-03-16T05:30:18.321Z,0.32
2023-03-16T05:32:46.190Z,0.27
2023-03-16T05:35:24.197Z,0.58
2023-03-16T05:37:52.348Z,0.49
2023-03-16T05:40:22.456Z,0.34
2023-03-16T05:42:57.906Z,0.13
2023-03-16T05:45:27.561Z,0.35
2023-03-16T05:48:15.445Z,0.55
2023-03-16T05:50:46.693Z,0.66
2023-03-16T05:53:15.272Z,0.29
2023-03-16T05:55:42.934Z,0.11
2023-03-16T05:58:11.994Z,0.49
2023-03-16T06:00:40.716Z,0.75
2023-03-16T06:03:17.290Z,0.57
2023-03-16T06:05:45.661Z,0.38
2023-03-16T06:08:13.034Z,0.40
2023-03-16T06:10:48.662Z,0.45
2023-03-16T06:13:19.295Z,0.67
2023-03-16T06:15:46.349Z,0.45
2023-03-16T06:18:13.907Z,0.48
2023-03-16T06:20:41.971Z,0.63
2023-03-16T06:23:09.096Z,0.81
2023-03-16T06:25:40.852Z,0.69
2023-03-16T06:28:09.096Z,0.62
2023-03-16T06:30:39.502Z,0.64
2023-03-16T06:33:07.393Z,0.69
2023-03-16T06:35:34.968Z,0.82
2023-03-16T06:38:12.115Z,0.89
2023-03-16T06:40:53.090Z,1.01
2023-03-16T06:43:22.064Z,0.86
2023-03-16T06:45:50.110Z,0.73
2023-03-16T06:48:17.703Z,1.05
2023-03-16T06:50:46.386Z,1.09
2023-03-16T06:53:14.380Z,0.86
2023-03-16T06:55:42.208Z,0.74
2023-03-16T06:58:09.468Z,0.90
2023-03-16T07:00:36.612Z,1.10
2023-03-16T07:03:04.182Z,1.21
2023-03-16T07:05:31.729Z,0.98
2023-03-16T07:08:01.955Z,0.92
2023-03-16T07:10:30.855Z,1.22
2023-03-16T07:12:58.088Z,1.26
2023-03-16T07:15:26.269Z,1.24
2023-03-16T07:17:55.868Z,0.91
2023-03-16T07:20:23.806Z,1.08
2023-03-16T07:22:51.908Z,1.25
2023-03-16T07:25:19.404Z,1.15
2023-03-16T07:27:50.505Z,1.15
2023-03-16T07:30:24.932Z,1.10
2023-03-16T07:32:52.600Z,1.29
2023-03-16T07:35:22.195Z,1.43
2023-03-16T07:37:50.161Z,1.26
2023-03-16T07:40:19.563Z,1.26
2023-03-16T07:42:47.136Z,1.37
2023-03-16T07:45:17.350Z,1.42
2023-03-16T07:47:45.249Z,1.58
2023-03-16T07:50:21.816Z,1.38
2023-03-16T07:52:51.901Z,1.24
2023-03-16T07:55:20.393Z,1.28
2023-03-16T07:57:48.150Z,1.58
2023-03-16T08:00:23.490Z,1.67
2023-03-16T08:02:52.256Z,1.61
2023-03-16T08:05:19.176Z,1.54
2023-03-16T08:07:50.570Z,1.47
2023-03-16T08:10:21.504Z,1.66
2023-03-16T08:13:00.273Z,1.69
2023-03-16T08:15:29.357Z,1.69
2023-03-16T08:18:03.960Z,1.55
2023-03-16T08:20:33.888Z,1.49
2023-03-16T08:23:02.101Z,1.74
2023-03-16T08:25:35.254Z,1.88
2023-03-16T08:28:10.175Z,1.83
2023-03-16T08:30:44.295Z,1.88
2023-03-16T08:33:43.318Z,1.48
2023-03-16T08:36:12.812Z,1.52
2023-03-16T08:38:44.127Z,1.65
2023-03-16T08:41:13.673Z,1.63
2023-03-16T08:43:41.902Z,1.57
2023-03-16T08:46:11.150Z,1.55
2023-03-16T08:48:45.214Z,1.74
2023-03-16T08:51:13.146Z,1.75
2023-03-16T08:53:40.737Z,1.71
2023-03-16T08:56:09.354Z,1.75
2023-03-16T08:58:36.982Z,1.55
2023-03-16T09:01:05.361Z,1.67
2023-03-16T09:03:34.883Z,1.98
2023-03-16T09:06:03.347Z,1.80
2023-03-16T09:08:30.915Z,1.64
2023-03-16T09:11:05.164Z,1.48
2023-03-16T09:13:34.014Z,1.71
2023-03-16T09:16:02.669Z,1.77
2023-03-16T09:18:32.398Z,1.87
2023-03-16T09:21:00.886Z,1.56
2023-03-16T09:23:28.856Z,1.63
2023-03-16T09:26:00.640Z,1.77
2023-03-16T09:28:28.075Z,1.81
2023-03-16T09:30:58.046Z,1.72
2023-03-16T09:33:25.764Z,1.70
2023-03-16T09:35:57.006Z,1.82
2023-03-16T09:38:25.915Z,2.23
2023-03-16T09:41:06.904Z,2.45
2023-03-16T09:44:10.915Z,2.30
2023-03-16T09:46:44.061Z,1.95
2023-03-16T09:49:13.362Z,1.84
2023-03-16T09:52:04.375Z,1.84
2023-03-16T09:54:42.683Z,2.09
2023-03-16T09:57:24.266Z,2.22
2023-03-16T09:59:54.601Z,1.87
2023-03-16T10:02:46.539Z,1.91
2023-03-16T10:05:16.569Z,2.18
2023-03-16T10:08:09.702Z,2.49
2023-03-16T10:10:58.668Z,2.32
2023-03-16T10:13:48.854Z,2.02
2023-03-16T10:17:02.695Z,1.98
2023-03-16T10:19:41.618Z,2.01
2023-03-16T10:22:25.979Z,2.36
2023-03-16T10:25:30.709Z,2.41
2023-03-16T10:27:58.074Z,2.16
2023-03-16T10:30:31.955Z,2.12
2023-03-16T10:33:01.965Z,2.18
2023-03-16T10:35:35.785Z,2.29
2023-03-16T10:38:03.045Z,2.25
2023-03-16T10:40:32.338Z,2.28
2023-03-16T10:43:12.899Z,2.38
2023-03-16T10:45:42.262Z,2.68
2023-03-16T10:48:14.477Z,2.66
2023-03-16T10:50:42.685Z,2.93
2023-03-16T10:53:23.321Z,2.91
2023-03-16T10:55:59.900Z,2.53
2023-03-16T10:58:32.176Z,2.28
2023-03-16T11:01:01.265Z,2.59
2023-03-16T11:03:38.642Z,2.54
2023-03-16T11:06:06.988Z,2.34
2023-03-16T11:08:36.873Z,2.37
2023-03-16T11:11:14.134Z,2.53
2023-03-16T11:13:46.700Z,3.00
2023-03-16T11:16:59.068Z,3.03
2023-03-16T11:19:31.178Z,2.72
2023-03-16T11:22:11.535Z,2.49
2023-03-16T11:25:06.576Z,2.38
2023-03-16T11:27:52.448Z,2.61
2023-03-16T11:30:30.530Z,2.86
2023-03-16T11:33:00.071Z,2.94
2023-03-16T11:35:37.151Z,2.91
2023-03-16T11:38:15.127Z,2.90
2023-03-16T11:40:45.448Z,2.69
2023-03-16T11:43:38.915Z,2.56
2023-03-16T11:46:20.264Z,2.57
2023-03-16T11:49:25.252Z,2.49
2023-03-16T11:52:12.659Z,2.61
2023-03-16T11:54:58.134Z,2.53
2023-03-16T11:57:28.360Z,2.76
2023-03-16T12:00:20.304Z,2.86
2023-03-16T12:03:13.153Z,2.99
2023-03-16T12:06:23.380Z,2.93
2023-03-16T12:09:03.992Z,2.88
2023-03-16T12:11:36.343Z,2.88
2023-03-16T12:14:08.600Z,3.03
2023-03-16T12:17:01.071Z,3.21
2023-03-16T12:19:52.075Z,3.09
2023-03-16T12:22:41.526Z,3.15
2023-03-16T12:25:36.209Z,3.17
2023-03-16T12:28:07.074Z,2.95
2023-03-16T12:31:01.098Z,3.12
2023-03-16T12:34:13.952Z,3.38
2023-03-16T12:36:44.191Z,3.37
2023-03-16T12:39:14.910Z,3.26
2023-03-16T12:41:50.960Z,2.99
2023-03-16T12:44:26.405Z,2.79
2023-03-16T12:47:04.020Z,2.76
2023-03-16T12:49:32.793Z,2.91
2023-03-16T12:52:12.238Z,2.97
2023-03-16T12:54:51.764Z,2.40
2023-03-16T12:57:24.761Z,1.95
2023-03-16T12:59:56.601Z,2.23
2023-03-16T13:02:34.627Z,2.60
2023-03-16T13:05:12.621Z,2.62
2023-03-16T13:07:51.902Z,2.37
2023-03-16T13:10:21.878Z,2.35
2023-03-16T13:12:51.059Z,2.51
2023-03-16T13:15:22.418Z,2.66
2023-03-16T13:18:04.410Z,2.73
2023-03-16T13:20:33.226Z,2.76
2023-03-16T13:23:08.248Z,2.77
2023-03-16T13:25:42.546Z,2.32
2023-03-16T13:28:13.707Z,2.24
2023-03-16T13:30:48.865Z,2.67
2023-03-16T13:33:21.416Z,2.80
2023-03-16T13:35:50.733Z,2.87
2023-03-16T13:38:22.096Z,2.77
2023-03-16T13:40:50.964Z,2.73
2023-03-16T13:43:29.335Z,2.86
2023-03-16T13:45:56.941Z,3.04
2023-03-16T13:48:26.941Z,3.21
2023-03-16T13:50:58.813Z,3.30
2023-03-16T13:53:31.071Z,3.12
2023-03-16T13:56:03.854Z,3.31
2023-03-16T13:58:35.406Z,3.43
2023-03-16T14:01:04.908Z,3.28
2023-03-16T14:03:53.262Z,3.22
2023-03-16T14:06:26.242Z,3.22
2023-03-16T14:08:57.559Z,3.15
2023-03-16T14:11:28.157Z,2.99
2023-03-16T14:13:57.318Z,3.01
2023-03-16T14:16:27.692Z,2.94
2023-03-16T14:19:01.351Z,3.07
2023-03-16T14:21:31.394Z,3.25
2023-03-16T14:24:04.076Z,3.28
2023-03-16T14:26:42.422Z,3.22
2023-03-16T14:29:26.620Z,3.22
2023-03-16T14:31:54.388Z,2.99
2023-03-16T14:34:30.943Z,3.01
2023-03-16T14:37:09.369Z,3.08
2023-03-16T14:39:40.734Z,3.05
2023-03-16T14:42:25.361Z,2.95
2023-03-16T14:44:57.118Z,2.95
2023-03-16T14:47:27.559Z,2.93
2023-03-16T14:49:56.860Z,3.06
2023-03-16T14:52:26.894Z,3.57
2023-03-16T14:54:54.830Z,3.63
2023-03-16T14:57:24.135Z,3.45
2023-03-16T14:59:54.489Z,3.08
2023-03-16T15:02:25.263Z,3.08
2023-03-16T15:04:52.339Z,2.77
2023-03-16T15:07:25.949Z,2.58
2023-03-16T15:09:53.501Z,2.63
2023-03-16T15:12:22.208Z,2.96
2023-03-16T15:15:08.790Z,2.95
2023-03-16T15:17:38.724Z,2.92
2023-03-16T15:20:06.838Z,2.82
2023-03-16T15:22:36.736Z,2.53
2023-03-16T15:25:35.709Z,2.43
2023-03-16T15:28:10.960Z,2.36
2023-03-16T15:30:40.542Z,2.55
2023-03-16T15:33:11.291Z,2.45
2023-03-16T15:35:39.444Z,2.53
2023-03-16T15:38:32.025Z,2.51
2023-03-16T15:40:59.335Z,2.23
2023-03-16T15:43:30.480Z,2.00
2023-03-16T15:45:59.326Z,1.90
2023-03-16T15:48:26.520Z,2.02
2023-03-16T15:50:58.076Z,2.16
2023-03-16T15:53:31.090Z,2.22
2023-03-16T15:56:02.711Z,2.22
2023-03-16T15:58:31.191Z,2.00
2023-03-16T16:00:59.150Z,1.96
2023-03-16T16:03:26.818Z,1.88
2023-03-16T16:05:55.249Z,1.86
2023-03-16T16:08:26.472Z,2.09
2023-03-16T16:10:54.207Z,2.13
2023-03-16T16:13:37.526Z,2.14
2023-03-16T16:16:15.160Z,1.79
2023-03-16T16:18:42.804Z,1.49
2023-03-16T16:21:21.861Z,1.42
2023-03-16T16:23:50.298Z,1.62
2023-03-16T16:26:23.377Z,1.46
2023-03-16T16:28:52.945Z,1.34
2023-03-16T16:31:21.399Z,1.25
2023-03-16T16:33:49.858Z,1.14
2023-03-16T16:36:19.770Z,1.40
2023-03-16T16:38:47.532Z,1.56
2023-03-16T16:41:28.406Z,1.56
2023-03-16T16:43:56.169Z,1.38
2023-03-16T16:46:26.967Z,1.19
2023-03-16T16:49:01.792Z,1.14
2023-03-16T16:51:29.394Z,1.51
2023-03-16T16:54:00.650Z,1.49
2023-03-16T16:56:30.147Z,1.46
2023-03-16T16:59:02.209Z,1.16
2023-03-16T17:01:32.570Z,1.04
2023-03-16T17:04:01.417Z,0.91
2023-03-16T17:06:28.805Z,1.08
2023-03-16T17:08:57.247Z,1.11
2023-03-16T17:11:29.477Z,1.07
2023-03-16T17:14:01.501Z,1.01
2023-03-16T17:16:32.496Z,0.85
2023-03-16T17:19:01.215Z,0.68
2023-03-16T17:21:29.700Z,0.87
2023-03-16T17:23:57.919Z,1.16
2023-03-16T17:26:30.145Z,1.04
2023-03-16T17:29:02.314Z,0.87
2023-03-16T17:31:36.213Z,0.82
2023-03-16T17:34:08.898Z,0.68
2023-03-16T17:36:36.362Z,0.90
2023-03-16T17:39:07.393Z,1.12
2023-03-16T17:41:34.553Z,1.16
2023-03-16T17:44:02.527Z,1.07
2023-03-16T17:46:32.920Z,0.91
2023-03-16T17:49:01.944Z,0.78
2023-03-16T17:51:31.849Z,0.67
2023-03-16T17:53:59.440Z,0.93
2023-03-16T17:56:27.275Z,1.10
2023-03-16T17:58:57.682Z,1.01
2023-03-16T18:01:33.950Z,0.97
2023-03-16T18:04:01.883Z,0.76
2023-03-16T18:06:30.764Z,0.66
2023-03-16T18:08:57.770Z,0.55
2023-03-16T18:11:31.568Z,0.70
2023-03-16T18:13:58.727Z,1.11
2023-03-16T18:16:30.717Z,1.07
2023-03-16T18:19:00.403Z,0.93
2023-03-16T18:21:28.373Z,0.70
2023-03-16T18:23:55.826Z,0.44
2023-03-16T18:26:29.926Z,0.39
2023-03-16T18:28:58.934Z,0.47
2023-03-16T18:31:27.152Z,0.89
2023-03-16T18:33:57.008Z,1.16
2023-03-16T18:36:28.076Z,0.95
2023-03-16T18:39:03.299Z,0.83
2023-03-16T18:43:15.527Z,0.63
2023-03-16T18:45:46.247Z,0.37
2023-03-16T18:48:28.030Z,0.13
2023-03-16T18:50:57.353Z,0.65
2023-03-16T18:53:28.176Z,1.01
2023-03-16T18:55:57.622Z,0.93
2023-03-16T18:58:27.236Z,0.68
2023-03-16T19:00:58.294Z,0.45
2023-03-16T19:03:32.020Z,0.29
2023-03-16T19:06:01.327Z,0.08
2023-03-16T19:08:30.106Z,0.13
2023-03-16T19:11:01.451Z,0.62
2023-03-16T19:13:30.346Z,0.83
2023-03-16T19:16:00.922Z,0.68
2023-03-16T19:18:30.474Z,0.57
2023-03-16T19:20:59.205Z,0.33
2023-03-16T19:23:30.968Z,0.16
2023-03-16T19:25:59.406Z,0.07
2023-03-16T19:28:34.705Z,0.45
2023-03-16T19:31:14.676Z,0.74
2023-03-16T19:33:43.395Z,0.81
2023-03-16T19:36:17.084Z,0.63
2023-03-16T19:38:50.589Z,0.52
2023-03-16T19:41:27.160Z,0.32
2023-03-16T19:44:03.791Z,0.10
2023-03-16T19:46:32.272Z,0.18
2023-03-16T19:49:02.015Z,0.68
2023-03-16T19:51:32.545Z,0.83
2023-03-16T19:54:01.553Z,0.77
2023-03-16T19:56:30.428Z,0.60
2023-03-16T19:58:58.859Z,0.42
2023-03-16T20:01:32.561Z,0.25
2023-03-16T20:04:04.533Z,0.05
2023-03-16T20:06:36.536Z,0.12
2023-03-16T20:09:05.026Z,0.73
2023-03-16T20:11:33.910Z,0.88
2023-03-16T20:14:03.818Z,0.75
2023-03-16T20:16:33.739Z,0.50
2023-03-16T20:19:05.374Z,0.31
2023-03-16T20:21:33.786Z,0.05
2023-03-16T20:24:02.490Z,-0.14
2023-03-16T20:26:33.090Z,0.16
2023-03-16T20:29:01.878Z,0.48
2023-03-16T20:31:34.506Z,0.51
2023-03-16T20:34:03.754Z,0.44
2023-03-16T20:36:33.459Z,0.19
2023-03-16T20:39:03.370Z,0.02
2023-03-16T20:41:36.865Z,-0.16
2023-03-16T20:44:05.357Z,-0.32
2023-03-16T20:46:36.087Z,-0.07
2023-03-16T20:49:06.128Z,0.39
2023-03-16T20:51:35.090Z,0.46
2023-03-16T20:54:04.095Z,0.31
2023-03-16T20:56:32.485Z,0.05
2023-03-16T20:59:01.148Z,-0.24
2023-03-16T21:01:30.725Z,-0.39
2023-03-16T21:04:04.892Z,-0.32
2023-03-16T21:06:34.637Z,0.22
2023-03-16T21:09:03.667Z,0.36
2023-03-16T21:11:38.131Z,0.43
2023-03-16T21:14:07.487Z,0.11
2023-03-16T21:16:35.769Z,-0.19
2023-03-16T21:19:17.667Z,-0.45
2023-03-16T21:21:46.626Z,-0.74
2023-03-16T21:24:21.398Z,-0.93
2023-03-16T21:26:50.682Z,-0.37
2023-03-16T21:29:22.132Z,0.12
2023-03-16T21:31:53.094Z,0.16
2023-03-16T21:34:24.020Z,-0.06
2023-03-16T21:36:56.791Z,-0.36
2023-03-16T21:39:29.270Z,-0.62
2023-03-16T21:41:57.764Z,-0.77
2023-03-16T21:44:27.151Z,-1.00
2023-03-16T21:46:55.968Z,-1.11
2023-03-16T21:49:26.989Z,-0.54
2023-03-16T21:51:55.864Z,-0.20
2023-03-16T21:54:24.341Z,-0.31
2023-03-16T21:56:53.455Z,-0.51
2023-03-16T21:59:23.778Z,-0.69
2023-03-16T22:02:01.681Z,-0.88
2023-03-16T22:04:33.141Z,-0.99
2023-03-16T22:07:01.618Z,-0.55
2023-03-16T22:09:33.148Z,-0.06
2023-03-16T22:12:01.830Z,-0.09
2023-03-16T22:14:31.472Z,-0.31
2023-03-16T22:17:02.896Z,-0.63
2023-03-16T22:19:31.615Z,-0.87
2023-03-16T22:22:03.860Z,-1.09
2023-03-16T22:24:37.003Z,-1.22
2023-03-16T22:27:11.250Z,-0.77
2023-03-16T22:29:44.453Z,-0.24
2023-03-16T22:32:16.809Z,-0.23
2023-03-16T22:34:56.449Z,-0.44
2023-03-16T22:37:26.714Z,-0.72
2023-03-16T22:39:57.523Z,-0.88
2023-03-16T22:42:32.583Z,-1.08
2023-03-16T22:45:01.163Z,-1.22
2023-03-16T22:47:33.476Z,-0.74
2023-03-16T22:50:02.191Z,-0.32
2023-03-16T22:52:32.743Z,-0.35
2023-03-16T22:55:03.417Z,-0.54
2023-03-16T22:57:31.828Z,-0.80
2023-03-16T23:07:20.324Z,-0.85
2023-03-16T23:09:48.655Z,-0.52
2023-03-16T23:12:20.734Z,-0.51
2023-03-16T23:14:49.966Z,-0.69
2023-03-16T23:17:20.122Z,-0.94
2023-03-16T23:19:55.018Z,-1.12
2023-03-16T23:29:02.000Z,-0.42
2023-03-16T23:31:30.931Z,-0.59
2023-03-16T23:33:59.523Z,-0.75
2023-03-16T23:36:28.334Z,-0.98
2023-03-16T23:38:58.014Z,-1.13
2023-03-16T23:41:26.904Z,-1.23
2023-03-16T23:43:58.814Z,-0.76
2023-03-16T23:46:28.624Z,-0.34
2023-03-16T23:48:58.366Z,-0.43
2023-03-16T23:51:36.815Z,-0.63
2023-03-16T23:54:16.836Z,-0.86
2023-03-16T23:56:45.560Z,-1.11
2023-03-16T23:59:14.379Z,-1.23
